Time;durP1;ratioP1;P1;durP2;ratioP2;P2;SDS_P1;SDS_P2;PMS_P1;PMS_P2;Temp;Humidity;BMP_temperature;BMP_pressure;BME280_temperature;BME280_humidity;BME280_pressure;Samples;Min_cycle;Max_cycle;Signal;HPM_P1;HPM_P2
2022/04/08 00:01:46;;;;;;;0.75;0.20;;;;;;;18.91;32.65;99824.59;16141933;19;128945;-44
2022/04/08 00:07:08;;;;;;;1.63;0.30;;;;;;;18.89;32.87;99826.81;16138715;19;130521;-45
2022/04/08 00:12:30;;;;;;;0.77;0.30;;;;;;;18.88;32.79;99839.00;16137318;19;129351;-45
2022/04/08 00:17:52;;;;;;;0.95;0.30;;;;;;;18.86;32.90;99836.53;16140138;19;129558;-45
2022/04/08 00:23:14;;;;;;;1.92;0.20;;;;;;;18.86;32.61;99842.06;16142806;19;129495;-44
2022/04/08 00:28:36;;;;;;;0.98;0.38;;;;;;;18.86;32.55;99849.53;16139515;19;130026;-44
2022/04/08 00:33:58;;;;;;;0.55;0.28;;;;;;;18.84;32.72;99840.66;16139066;19;128863;-47
2022/04/08 00:39:20;;;;;;;3.47;0.40;;;;;;;18.82;32.69;99848.44;16139886;19;129169;-45
2022/04/08 00:44:42;;;;;;;3.63;0.30;;;;;;;18.79;32.78;99866.41;16135757;19;131056;-42
2022/04/08 00:50:04;;;;;;;1.20;0.45;;;;;;;18.74;32.73;99853.38;16135678;19;129655;-46
2022/04/08 00:55:26;;;;;;;1.38;0.30;;;;;;;18.72;32.99;99866.69;16135598;19;129408;-44
2022/04/08 01:00:48;;;;;;;0.90;0.38;;;;;;;18.72;33.01;99872.22;16139993;19;129791;-44
2022/04/08 01:06:10;;;;;;;0.75;0.25;;;;;;;18.72;32.93;99883.31;16136440;19;129321;-43
2022/04/08 01:11:31;;;;;;;1.15;0.35;;;;;;;18.70;33.09;99885.53;16136919;19;129422;-44
2022/04/08 01:16:53;;;;;;;0.57;0.30;;;;;;;18.68;32.74;99887.75;16139432;19;130375;-45
2022/04/08 01:22:17;;;;;;;1.48;0.30;;;;;;;18.67;33.09;99885.22;16137444;19;129791;-42
2022/04/08 01:27:40;;;;;;;0.98;0.22;;;;;;;18.65;32.95;99887.44;16135554;19;129621;-43
2022/04/08 01:33:02;;;;;;;0.95;0.30;;;;;;;18.63;32.76;99896.03;16135288;19;130553;-46
2022/04/08 01:38:24;;;;;;;0.80;0.28;;;;;;;18.62;32.79;99888.81;16137419;19;130235;-41
2022/04/08 01:43:45;;;;;;;0.57;0.25;;;;;;;18.60;32.97;99891.03;16135094;19;129466;-44
2022/04/08 01:49:07;;;;;;;0.55;0.20;;;;;;;18.60;32.94;99893.78;16135406;19;129376;-46
2022/04/08 01:54:29;;;;;;;3.13;0.30;;;;;;;18.57;33.27;99899.88;16137551;19;129287;-45
2022/04/08 01:59:52;;;;;;;0.95;0.28;;;;;;;18.57;32.85;99909.03;16151272;19;129935;-43
2022/04/08 02:05:14;;;;;;;0.38;0.20;;;;;;;18.56;32.88;99901.81;16147835;19;128978;-44
2022/04/08 02:10:36;;;;;;;0.60;0.20;;;;;;;18.54;32.88;99914.28;16144354;19;130660;-45
2022/04/08 02:15:57;;;;;;;1.75;0.32;;;;;;;18.53;33.38;99918.97;16144834;19;129408;-43
2022/04/08 02:21:20;;;;;;;1.58;0.30;;;;;;;18.52;32.95;99922.00;16148177;19;130110;-46
2022/04/08 02:26:41;;;;;;;1.48;0.40;;;;;;;18.51;32.98;99921.19;16146410;19;133017;-44
2022/04/08 02:32:04;;;;;;;0.88;0.20;;;;;;;18.50;33.09;99918.69;16149536;19;129601;-45
2022/04/08 02:37:27;;;;;;;1.65;0.40;;;;;;;18.49;33.16;99922.56;16148947;19;129739;-42
2022/04/08 02:42:48;;;;;;;0.80;0.20;;;;;;;18.48;33.22;99915.34;16146968;19;129506;-44
2022/04/08 02:48:13;;;;;;;3.00;0.45;;;;;;;18.46;33.12;99913.66;16141378;19;129538;-46
2022/04/08 02:53:35;;;;;;;1.73;0.20;;;;;;;18.44;33.37;99915.91;16145187;19;130070;-48
2022/04/08 02:59:00;;;;;;;1.05;0.13;;;;;;;18.45;33.13;99917.56;16144787;19;129640;-45
2022/04/08 03:04:22;;;;;;;0.90;0.30;;;;;;;18.43;33.13;99917.00;16146896;19;129545;-43
2022/04/08 03:09:45;;;;;;;0.75;0.30;;;;;;;18.41;33.13;99924.75;16144776;19;130177;-44
2022/04/08 03:15:07;;;;;;;0.60;0.20;;;;;;;18.40;33.31;99925.03;16142902;19;130595;-42
2022/04/08 03:20:29;;;;;;;1.92;0.40;;;;;;;18.37;33.18;99937.41;16145761;19;130633;-43
2022/04/08 03:25:50;;;;;;;1.27;0.20;;;;;;;18.36;33.24;99932.16;16142542;19;129637;-44
2022/04/08 03:31:12;;;;;;;0.32;0.20;;;;;;;18.35;33.18;99939.63;16145771;19;130276;-43
2022/04/08 03:36:34;;;;;;;1.08;0.43;;;;;;;18.34;33.53;99949.03;16140590;19;129411;-45
2022/04/08 03:41:56;;;;;;;2.40;0.43;;;;;;;18.33;33.53;99957.59;16142745;19;129519;-42
2022/04/08 03:47:19;;;;;;;0.80;0.22;;;;;;;18.33;33.18;99964.00;16140316;19;130855;-42
2022/04/08 03:52:42;;;;;;;0.77;0.30;;;;;;;18.30;33.51;99968.13;16142563;19;128880;-42
2022/04/08 03:58:04;;;;;;;0.55;0.20;;;;;;;18.28;33.54;99961.19;16144682;19;130736;-42
2022/04/08 04:03:26;;;;;;;0.50;0.30;;;;;;;18.26;33.33;99946.78;16143304;19;128864;-42
2022/04/08 04:08:48;;;;;;;1.52;0.17;;;;;;;18.25;33.67;99931.25;16140147;19;130219;-43
2022/04/08 04:14:09;;;;;;;1.50;0.20;;;;;;;18.23;33.45;99934.31;16141863;19;130242;-43
2022/04/08 04:19:31;;;;;;;1.45;0.32;;;;;;;18.22;33.51;99935.41;16142981;19;129768;-42
2022/04/08 04:24:53;;;;;;;0.63;0.32;;;;;;;18.21;33.57;99927.38;16142851;19;129336;-45
2022/04/08 04:30:15;;;;;;;0.73;0.20;;;;;;;18.20;33.66;99925.72;16138136;19;129088;-42
2022/04/08 04:35:37;;;;;;;0.82;0.32;;;;;;;18.20;33.58;99925.72;16138744;19;129556;-43
2022/04/08 04:40:59;;;;;;;1.52;0.30;;;;;;;18.19;33.30;99929.56;16140852;19;129669;-43
2022/04/08 04:46:21;;;;;;;0.25;0.10;;;;;;;18.17;33.63;99932.59;16136700;19;129025;-45
2022/04/08 04:51:43;;;;;;;0.17;0.10;;;;;;;18.16;33.34;99930.91;16138997;19;131131;-44
2022/04/08 04:57:04;;;;;;;0.43;0.28;;;;;;;18.15;33.42;99930.09;16134603;19;129426;-43
2022/04/08 05:02:26;;;;;;;0.52;0.10;;;;;;;18.14;33.43;99928.44;16138969;19;129382;-44
2022/04/08 05:07:48;;;;;;;0.40;0.10;;;;;;;18.23;33.67;99930.69;16133830;19;131277;-45
2022/04/08 05:13:10;;;;;;;0.25;0.15;;;;;;;18.66;33.11;99930.66;16135981;19;130176;-43
2022/04/08 05:18:33;;;;;;;0.47;0.30;;;;;;;19.14;32.68;99933.31;16135903;19;129644;-47
2022/04/08 05:23:54;;;;;;;1.48;0.60;;;;;;;19.54;31.66;99926.19;16129920;19;129467;-45
2022/04/08 05:29:16;;;;;;;3.78;0.50;;;;;;;20.06;31.24;99909.53;16133709;19;130248;-43
2022/04/08 05:34:38;;;;;;;4.40;0.63;;;;;;;20.38;30.43;99919.41;16132859;19;129941;-45
2022/04/08 05:40:00;;;;;;;5.70;0.68;;;;;;;20.55;30.70;99914.38;16131277;19;129057;-48
2022/04/08 05:45:21;;;;;;;3.53;0.43;;;;;;;20.55;30.17;99900.47;16130774;19;129285;-45
2022/04/08 05:50:43;;;;;;;1.65;0.63;;;;;;;20.52;30.49;99897.41;16134238;19;128912;-42
2022/04/08 05:56:05;;;;;;;1.55;0.50;;;;;;;20.42;30.16;99898.31;16132928;19;129852;-47
2022/04/08 06:01:27;;;;;;;3.10;0.40;;;;;;;20.32;30.64;99898.31;16132495;19;129929;-43
2022/04/08 06:06:50;;;;;;;1.60;0.60;;;;;;;20.19;30.53;99892.25;16131500;19;130024;-42
2022/04/08 06:12:12;;;;;;;2.75;0.45;;;;;;;20.09;30.55;99904.22;16132415;19;130144;-43
2022/04/08 06:17:36;;;;;;;2.55;0.32;;;;;;;19.98;31.08;99900.59;16129350;19;129320;-43
2022/04/08 06:22:58;;;;;;;2.85;0.43;;;;;;;19.85;31.14;99890.06;16133532;19;129229;-43
2022/04/08 06:28:19;;;;;;;1.75;0.40;;;;;;;19.74;31.44;99892.06;16133458;19;129303;-42
2022/04/08 06:33:42;;;;;;;2.58;0.50;;;;;;;19.63;31.44;99885.66;16132791;19;130378;-44
2022/04/08 06:39:04;;;;;;;2.15;0.50;;;;;;;19.54;31.66;99881.78;16131425;19;129844;-41
2022/04/08 06:44:25;;;;;;;3.55;0.60;;;;;;;19.47;31.84;99887.63;16143066;19;128978;-43
2022/04/08 06:49:47;;;;;;;1.75;0.30;;;;;;;19.45;31.40;99881.50;16147314;19;129080;-46
2022/04/08 06:55:09;;;;;;;1.10;0.47;;;;;;;19.50;31.87;99883.44;16145531;19;130570;-44
2022/04/08 07:00:32;;;;;;;1.13;0.40;;;;;;;19.68;31.83;99888.44;16148443;19;129387;-42
2022/04/08 07:05:54;;;;;;;1.23;0.45;;;;;;;19.88;31.54;99881.19;16143986;19;130004;-41
2022/04/08 07:11:16;;;;;;;0.70;0.32;;;;;;;20.07;31.67;99883.38;16145712;19;129476;-42
2022/04/08 07:16:37;;;;;;;0.60;0.30;;;;;;;20.24;31.46;99872.81;16140054;19;130474;-43
2022/04/08 07:21:59;;;;;;;1.25;0.30;;;;;;;20.39;31.36;99871.09;16147735;19;129873;-43
2022/04/08 07:27:21;;;;;;;5.15;0.50;;;;;;;20.53;31.04;99883.25;16146536;19;128926;-42
2022/04/08 07:32:44;;;;;;;3.40;0.40;;;;;;;20.62;31.09;99871.53;16146409;19;131104;-42
2022/04/08 07:38:05;;;;;;;1.13;0.50;;;;;;;20.63;30.91;99864.88;16142525;19;128862;-44
2022/04/08 07:43:27;;;;;;;1.05;0.40;;;;;;;20.57;30.69;99858.50;16144534;19;129463;-47
2022/04/08 07:48:49;;;;;;;1.60;0.30;;;;;;;20.49;31.19;99857.16;16139073;19;129860;-42
2022/04/08 07:54:11;;;;;;;1.45;0.40;;;;;;;20.40;31.22;99850.53;16142893;19;130209;-43
2022/04/08 07:59:32;;;;;;;0.90;0.40;;;;;;;20.27;31.05;99847.25;16139561;19;129319;-45
2022/04/08 08:04:54;;;;;;;2.63;0.40;;;;;;;20.17;31.19;99835.34;16142234;19;130455;-45
2022/04/08 08:10:21;;;;;;;1.27;0.30;;;;;;;20.06;31.31;99835.38;16143652;19;129088;-45
2022/04/08 08:15:43;;;;;;;2.08;0.32;;;;;;;19.97;31.56;99829.53;16140000;19;129953;-45
2022/04/08 08:21:05;;;;;;;1.13;0.40;;;;;;;19.88;31.75;99819.31;16142115;19;129960;-44
2022/04/08 08:26:27;;;;;;;2.00;0.30;;;;;;;19.81;31.80;99811.28;16143543;19;130598;-46
2022/04/08 08:31:49;;;;;;;4.68;0.70;;;;;;;19.73;31.33;99803.50;16141433;19;129696;-43
2022/04/08 08:37:15;;;;;;;4.13;0.90;;;;;;;19.50;30.18;99791.91;16136868;19;130184;-46
2022/04/08 08:42:38;;;;;;;4.45;1.35;;;;;;;19.40;30.61;99776.09;16139967;19;129592;-44
2022/04/08 08:48:02;;;;;;;5.65;1.00;;;;;;;19.41;30.89;99768.63;16135474;19;129905;-46
2022/04/08 08:53:24;;;;;;;8.63;1.00;;;;;;;19.49;30.60;99760.59;16135384;19;129115;-47
2022/04/08 08:58:46;;;;;;;3.40;1.13;;;;;;;19.62;30.64;99758.34;16135688;19;129296;-47
2022/04/08 09:04:08;;;;;;;4.22;0.98;;;;;;;19.75;30.67;99763.28;16135760;19;129923;-43
2022/04/08 09:09:31;;;;;;;2.33;0.73;;;;;;;19.86;31.20;99777.13;16126179;19;129442;-45
2022/04/08 09:14:55;;;;;;;4.75;0.98;;;;;;;19.94;31.27;99766.25;16135425;19;130025;-44
2022/04/08 09:20:17;;;;;;;2.58;0.70;;;;;;;20.01;31.11;99779.03;16139102;19;129392;-44
2022/04/08 09:25:40;;;;;;;5.15;0.90;;;;;;;20.03;31.18;99782.38;16138798;19;129861;-43
2022/04/08 09:31:04;;;;;;;3.50;0.70;;;;;;;20.02;31.48;99787.06;16139081;19;129581;-45
2022/04/08 09:36:31;;;;;;;2.92;0.70;;;;;;;19.99;31.61;99795.97;16135353;19;129020;-46
2022/04/08 09:41:54;;;;;;;4.22;1.00;;;;;;;19.94;31.76;99807.06;16136800;19;129294;-47
2022/04/08 09:47:16;;;;;;;2.85;0.70;;;;;;;19.89;31.99;99794.03;16132817;19;129471;-43
2022/04/08 09:52:39;;;;;;;3.17;0.60;;;;;;;19.85;31.83;99798.47;16136465;19;130940;-45
2022/04/08 09:58:04;;;;;;;3.67;0.65;;;;;;;19.81;32.02;99787.13;16131213;19;130153;-45
2022/04/08 10:03:27;;;;;;;1.42;0.55;;;;;;;19.77;32.49;99779.66;16137169;19;128808;-43
2022/04/08 10:08:50;;;;;;;1.92;0.65;;;;;;;19.73;32.26;99768.28;16131955;19;132149;-42
2022/04/08 10:14:44;;;;;;;1.73;0.57;;;;;;;19.69;32.67;99756.91;16134476;19;130007;-48
2022/04/08 10:20:22;;;;;;;2.00;0.52;;;;;;;19.65;32.75;99757.75;16149421;19;129670;-46
2022/04/08 10:25:48;;;;;;;2.10;0.55;;;;;;;19.72;32.89;99749.97;16152426;19;129489;-44
2022/04/08 10:31:18;;;;;;;0.80;0.40;;;;;;;19.83;32.70;99742.41;16150403;19;129889;-45
2022/04/08 10:36:44;;;;;;;1.73;0.50;;;;;;;19.97;32.93;99746.25;16144823;19;129349;-48
2022/04/08 10:42:08;;;;;;;2.65;0.68;;;;;;;20.14;32.50;99737.59;16149617;19;129470;-44
2022/04/08 10:47:30;;;;;;;0.73;0.40;;;;;;;20.35;32.44;99731.09;16145408;19;131467;-46
2022/04/08 10:53:03;;;;;;;1.02;0.55;;;;;;;20.53;32.15;99724.88;16148184;19;129555;-44
2022/04/08 10:58:35;;;;;;;0.75;0.35;;;;;;;20.67;31.79;99721.44;16145319;19;129654;-43
2022/04/08 11:04:00;;;;;;;1.20;0.50;;;;;;;20.79;31.50;99709.97;16148397;19;131108;-44
2022/04/08 11:09:23;;;;;;;1.38;0.35;;;;;;;20.85;31.60;99709.66;16143213;19;129241;-43
2022/04/08 11:14:58;;;;;;;1.92;0.50;;;;;;;20.89;31.99;99696.00;16140863;19;129177;-44
2022/04/08 11:20:21;;;;;;;2.13;0.40;;;;;;;20.86;31.92;99677.94;16145911;19;129901;-43
2022/04/08 11:25:43;;;;;;;0.88;0.30;;;;;;;20.81;31.78;99666.06;16147845;19;131643;-42
2022/04/08 11:31:05;;;;;;;0.93;0.40;;;;;;;20.71;31.87;99669.72;16146089;19;129565;-44
2022/04/08 11:36:26;;;;;;;1.60;0.40;;;;;;;20.62;32.13;99663.13;16144203;19;129114;-44
2022/04/08 11:41:53;;;;;;;1.60;0.30;;;;;;;20.51;32.45;99657.66;16144184;19;130108;-45
2022/04/08 11:47:17;;;;;;;1.25;0.40;;;;;;;20.41;32.26;99654.97;16140218;19;129112;-46
2022/04/08 11:52:38;;;;;;;0.68;0.20;;;;;;;20.35;32.80;99653.31;16141808;19;130031;-44
2022/04/08 11:58:00;;;;;;;2.25;0.40;;;;;;;20.26;32.46;99648.41;16140883;19;129430;-43
2022/04/08 12:03:27;;;;;;;1.40;0.30;;;;;;;20.19;32.52;99642.31;16144049;19;128964;-42
2022/04/08 12:08:49;;;;;;;1.20;0.30;;;;;;;20.14;33.06;99639.59;16145041;19;130827;-42
2022/04/08 12:14:12;;;;;;;0.50;0.20;;;;;;;20.08;32.70;99635.19;16136969;19;130180;-42
2022/04/08 12:19:40;;;;;;;0.77;0.30;;;;;;;20.02;32.80;99641.91;16135338;19;129821;-42
2022/04/08 12:25:05;;;;;;;0.20;0.10;;;;;;;19.93;33.16;99639.72;16138630;19;130533;-42
2022/04/08 12:30:30;;;;;;;1.13;0.30;;;;;;;19.90;33.21;99644.97;16138387;19;129737;-45
2022/04/08 12:35:54;;;;;;;1.15;0.30;;;;;;;19.88;33.18;99634.16;16140763;19;129453;-44
2022/04/08 12:41:15;;;;;;;0.85;0.30;;;;;;;19.86;32.77;99650.28;16137589;19;129626;-41
2022/04/08 12:46:38;;;;;;;0.35;0.20;;;;;;;19.84;32.98;99644.19;16138019;19;129497;-41
2022/04/08 12:52:00;;;;;;;0.88;0.30;;;;;;;19.84;32.61;99641.41;16141642;19;129613;-42
2022/04/08 12:57:22;;;;;;;0.63;0.22;;;;;;;19.83;32.75;99645.28;16136089;19;129506;-42
2022/04/08 13:03:03;;;;;;;1.00;0.43;;;;;;;19.81;32.81;99636.44;16139707;19;129990;-41
2022/04/08 13:08:25;;;;;;;2.08;0.50;;;;;;;19.81;32.85;99628.13;16138538;19;132286;-43
2022/04/08 13:13:47;;;;;;;0.93;0.30;;;;;;;19.80;32.76;99637.56;16137685;19;129493;-42
2022/04/08 13:19:09;;;;;;;1.88;0.50;;;;;;;19.78;32.69;99643.38;16134484;19;129562;-44
2022/04/08 13:24:30;;;;;;;1.00;0.30;;;;;;;19.79;32.53;99638.66;16139725;19;129363;-45
2022/04/08 13:29:52;;;;;;;2.25;0.40;;;;;;;19.76;32.17;99633.69;16138137;19;131002;-43
2022/04/08 13:35:14;;;;;;;0.63;0.28;;;;;;;19.76;32.61;99633.69;16136285;19;131882;-46
2022/04/08 13:40:36;;;;;;;0.90;0.40;;;;;;;19.73;32.47;99639.78;16134603;19;130192;-41
2022/04/08 13:45:58;;;;;;;2.28;0.50;;;;;;;19.72;31.64;99621.47;16135561;19;129416;-45
2022/04/08 13:51:19;;;;;;;3.00;0.60;;;;;;;19.69;31.17;99631.22;16137451;19;129470;-42
2022/04/08 13:56:41;;;;;;;2.05;0.50;;;;;;;19.68;31.34;99637.88;16134679;19;129424;-41
2022/04/08 14:02:03;;;;;;;2.60;0.73;;;;;;;19.68;30.76;99630.41;16129679;19;129617;-41
2022/04/08 14:07:25;;;;;;;1.90;0.70;;;;;;;19.67;31.04;99620.41;16134313;19;129438;-44
2022/04/08 14:12:47;;;;;;;1.20;0.50;;;;;;;19.65;31.83;99617.09;16132893;19;130254;-46
2022/04/08 14:18:09;;;;;;;2.83;0.75;;;;;;;19.65;32.66;99622.63;16130864;19;130458;-42
2022/04/08 14:23:34;;;;;;;3.20;0.55;;;;;;;19.81;33.49;99622.56;16133813;19;128964;-42
2022/04/08 14:28:55;;;;;;;2.03;0.70;;;;;;;19.98;33.45;99617.44;16129047;19;129364;-47
2022/04/08 14:34:17;;;;;;;1.55;0.68;;;;;;;20.16;33.78;99615.16;16134659;19;129729;-44
2022/04/08 14:39:39;;;;;;;1.27;0.40;;;;;;;20.30;33.87;99626.44;16128684;19;129518;-44
2022/04/08 14:45:01;;;;;;;1.75;0.50;;;;;;;20.42;34.05;99634.41;16131216;19;131901;-42
2022/04/08 14:50:22;;;;;;;7.20;0.85;;;;;;;20.52;33.92;99637.09;16127168;19;129189;-43
2022/04/08 14:55:46;;;;;;;5.55;0.57;;;;;;;20.61;34.07;99642.84;16126172;19;131281;-42
2022/04/08 15:01:08;;;;;;;13.07;1.10;;;;;;;20.70;34.33;99640.25;16132918;19;130886;-45
2022/04/08 15:06:29;;;;;;;6.35;0.98;;;;;;;20.77;34.63;99642.72;16146735;19;129424;-45
2022/04/08 15:11:51;;;;;;;18.95;1.30;;;;;;;20.80;34.32;99651.31;16146925;19;131561;-43
2022/04/08 15:17:14;;;;;;;14.27;1.95;;;;;;;20.84;34.65;99652.38;16145110;19;129347;-42
2022/04/08 15:22:36;;;;;;;9.25;1.60;;;;;;;20.83;35.08;99655.47;16146024;19;129901;-41
2022/04/08 15:27:59;;;;;;;9.77;1.92;;;;;;;20.77;34.99;99663.03;16141864;19;131824;-44
2022/04/08 15:33:23;;;;;;;12.48;1.95;;;;;;;20.70;35.61;99643.03;16142769;19;129508;-46
2022/04/08 15:38:45;;;;;;;14.32;1.85;;;;;;;20.66;35.32;99650.31;16135353;19;129561;-41
2022/04/08 15:44:07;;;;;;;10.40;1.58;;;;;;;20.62;35.09;99660.34;16135218;19;129535;-42
2022/04/08 15:49:30;;;;;;;13.18;1.48;;;;;;;20.57;34.82;99675.94;16139456;19;130746;-43
2022/04/08 15:54:52;;;;;;;8.80;1.30;;;;;;;20.52;34.42;99676.00;16139686;19;131086;-44
2022/04/08 16:00:14;;;;;;;14.40;2.10;;;;;;;20.44;34.61;99676.59;16136289;19;129547;-45
2022/04/08 16:05:36;;;;;;;8.43;1.30;;;;;;;20.42;34.88;99684.41;16143921;19;130507;-47
2022/04/08 16:10:59;;;;;;;5.10;1.13;;;;;;;20.37;35.14;99676.91;16134975;19;129973;-48
2022/04/08 16:16:20;;;;;;;6.03;1.20;;;;;;;20.33;35.57;99688.88;16130993;19;129278;-47
2022/04/08 16:21:44;;;;;;;9.57;1.30;;;;;;;20.24;35.31;99700.63;16132091;19;129493;-44
2022/04/08 16:27:06;;;;;;;6.55;1.40;;;;;;;20.17;34.95;99705.66;16132181;19;129234;-43
2022/04/08 16:32:28;;;;;;;9.90;3.47;;;;;;;20.08;34.96;99712.91;16139992;19;129847;-42
2022/04/08 16:38:00;;;;;;;26.23;6.78;;;;;;;19.97;34.47;99712.94;16137138;19;129388;-43
2022/04/08 16:43:22;;;;;;;11.68;4.53;;;;;;;19.86;35.59;99732.72;16138698;19;131739;-43
2022/04/08 16:48:44;;;;;;;11.45;4.03;;;;;;;19.82;35.30;99726.88;16134494;19;130291;-43
2022/04/08 16:54:06;;;;;;;14.93;3.97;;;;;;;19.83;35.32;99721.06;16139830;19;131933;-45
2022/04/08 16:59:30;;;;;;;9.15;3.00;;;;;;;19.95;34.84;99734.59;16136963;19;131527;-45
2022/04/08 17:04:52;;;;;;;10.48;2.53;;;;;;;20.34;34.25;99729.44;16134347;19;129799;-43
2022/04/08 17:10:15;;;;;;;7.75;2.50;;;;;;;20.72;34.06;99732.50;16134590;19;130565;-43
2022/04/08 17:15:37;;;;;;;3.60;1.42;;;;;;;21.08;33.33;99735.03;16134224;19;129309;-46
2022/04/08 17:20:59;;;;;;;7.20;1.85;;;;;;;21.36;32.55;99729.75;16127758;19;129407;-43
2022/04/08 17:26:21;;;;;;;6.68;1.60;;;;;;;21.59;32.52;99727.31;16128752;19;130746;-48
2022/04/08 17:31:43;;;;;;;4.07;1.40;;;;;;;21.78;32.37;99732.94;16133414;19;130464;-45
2022/04/08 17:37:07;;;;;;;3.65;1.25;;;;;;;21.91;31.95;99734.19;16135798;19;129580;-45
2022/04/08 17:42:34;;;;;;;4.38;1.52;;;;;;;21.93;31.67;99737.47;16133938;19;130147;-43
2022/04/08 17:48:00;;;;;;;9.38;1.77;;;;;;;21.82;32.01;99736.78;16121257;19;132543;-43
2022/04/08 17:53:21;;;;;;;3.97;1.50;;;;;;;21.66;32.19;99753.66;16125821;19;130034;-47
2022/04/08 17:58:48;;;;;;;6.28;1.13;;;;;;;21.52;32.43;99750.78;16132343;19;129392;-46
2022/04/08 18:04:10;;;;;;;6.57;1.10;;;;;;;21.39;32.38;99765.34;16130556;19;130635;-46
2022/04/08 18:09:31;;;;;;;2.85;0.90;;;;;;;21.26;32.58;99774.38;16128524;19;129607;-45
2022/04/08 18:14:55;;;;;;;4.57;1.17;;;;;;;21.14;32.64;99777.53;16127385;19;131011;-43
2022/04/08 18:20:17;;;;;;;5.70;1.08;;;;;;;21.01;32.49;99777.06;16128751;19;131323;-46
2022/04/08 18:25:38;;;;;;;4.45;1.30;;;;;;;20.87;32.40;99799.16;16126364;19;134313;-45
2022/04/08 18:31:01;;;;;;;9.25;1.30;;;;;;;20.77;32.71;99796.44;16132237;19;129330;-43
2022/04/08 18:36:23;;;;;;;5.95;1.10;;;;;;;20.67;32.57;99824.28;16134708;19;130616;-43
2022/04/08 18:41:45;;;;;;;6.65;1.20;;;;;;;20.53;32.53;99827.69;16146971;19;129718;-46
2022/04/08 18:47:09;;;;;;;5.68;1.30;;;;;;;20.49;33.18;99837.69;16143469;19;129432;-44
2022/04/08 18:52:31;;;;;;;9.52;1.35;;;;;;;20.45;33.83;99834.66;16147140;19;130853;-51
2022/04/08 18:57:52;;;;;;;6.70;1.13;;;;;;;20.54;35.60;99856.28;16145926;19;130229;-45
2022/04/08 19:03:14;;;;;;;6.82;1.02;;;;;;;20.66;36.14;99861.53;16147639;19;129888;-46
2022/04/08 19:08:36;;;;;;;8.93;1.65;;;;;;;20.75;36.54;99874.53;16143994;19;129665;-45
2022/04/08 19:13:58;;;;;;;6.25;1.50;;;;;;;20.79;36.63;99883.16;16144024;19;128856;-45
2022/04/08 19:19:20;;;;;;;6.57;1.30;;;;;;;20.78;37.19;99895.38;16138723;19;129686;-45
2022/04/08 19:24:42;;;;;;;15.15;1.02;;;;;;;20.80;38.35;99915.38;16138264;19;129322;-45
2022/04/08 19:30:05;;;;;;;7.22;1.30;;;;;;;20.79;38.26;99927.63;16142586;19;130684;-45
2022/04/08 19:35:27;;;;;;;13.80;1.20;;;;;;;20.78;39.11;99928.75;16143809;19;129112;-44
2022/04/08 19:40:49;;;;;;;18.58;1.45;;;;;;;20.77;39.80;99942.91;16139517;19;131686;-47
2022/04/08 19:46:11;;;;;;;8.23;1.17;;;;;;;20.74;40.33;99947.06;16139552;19;130677;-46
2022/04/08 19:51:33;;;;;;;17.75;1.58;;;;;;;20.72;39.77;99952.06;16140735;19;129901;-50
2022/04/08 19:56:55;;;;;;;6.18;1.48;;;;;;;20.77;40.47;99960.44;16140951;19;130727;-47
2022/04/08 20:02:19;;;;;;;7.78;1.40;;;;;;;20.92;40.10;99979.00;16141059;19;129626;-46
2022/04/08 20:07:42;;;;;;;6.28;0.95;;;;;;;21.11;40.54;99984.72;16140544;19;129492;-49
2022/04/08 20:13:04;;;;;;;5.43;1.10;;;;;;;21.27;40.81;100004.13;16138227;19;130761;-50
2022/04/08 20:18:27;;;;;;;4.97;0.88;;;;;;;21.37;40.33;100010.44;16135997;19;130771;-46
2022/04/08 20:23:49;;;;;;;2.58;0.60;;;;;;;21.47;40.68;100022.66;16143999;19;129090;-48
2022/04/08 20:29:12;;;;;;;8.13;0.95;;;;;;;21.59;40.68;100027.88;16140795;19;129347;-44
2022/04/08 20:34:34;;;;;;;5.15;0.77;;;;;;;21.68;40.66;100040.06;16142613;19;128978;-44
2022/04/08 20:39:55;;;;;;;7.13;0.80;;;;;;;21.71;40.52;100047.84;16134705;19;129088;-44
2022/04/08 20:45:18;;;;;;;8.60;1.17;;;;;;;21.62;39.88;100050.41;16134870;19;130665;-42
2022/04/08 20:50:39;;;;;;;10.80;1.48;;;;;;;21.50;39.60;100061.91;16132735;19;130321;-44
2022/04/08 20:56:02;;;;;;;7.93;1.65;;;;;;;21.35;39.71;100067.50;16134301;19;129579;-40
2022/04/08 21:01:26;;;;;;;10.35;1.20;;;;;;;21.21;40.30;100082.03;16129152;19;129810;-41
2022/04/08 21:06:50;;;;;;;4.68;1.10;;;;;;;21.05;40.04;100085.97;16135905;19;129406;-40
2022/04/08 21:12:14;;;;;;;8.15;1.10;;;;;;;20.90;39.82;100090.50;16132158;19;130082;-41
2022/04/08 21:17:36;;;;;;;5.63;1.00;;;;;;;20.77;40.53;100101.34;16131302;19;129840;-42
2022/04/08 21:22:58;;;;;;;6.07;0.93;;;;;;;20.63;40.60;100126.91;16138089;19;129600;-44
2022/04/08 21:28:19;;;;;;;3.38;0.98;;;;;;;20.54;41.43;100126.66;16136079;19;130488;-40
2022/04/08 21:33:41;;;;;;;4.53;1.10;;;;;;;20.45;41.61;100133.84;16132341;19;129267;-41
2022/04/08 21:39:04;;;;;;;3.75;1.00;;;;;;;20.36;41.81;100146.66;16135791;19;129190;-41
2022/04/08 21:44:26;;;;;;;5.25;0.60;;;;;;;20.26;42.05;100164.97;16136966;19;129766;-41
2022/04/08 21:49:47;;;;;;;3.65;0.70;;;;;;;20.19;42.25;100178.28;16136785;19;129519;-44
2022/04/08 22:00:51;;;;;;;3.45;0.70;;;;;;;20.04;43.12;100209.63;16131758;19;130312;-42
2022/04/08 22:06:13;;;;;;;2.47;0.50;;;;;;;19.96;43.38;100216.53;16135298;19;129573;-40
2022/04/08 22:11:35;;;;;;;2.55;0.70;;;;;;;19.90;43.65;100237.06;16134804;19;131395;-41
2022/04/08 22:16:57;;;;;;;3.20;0.60;;;;;;;19.84;43.46;100254.78;16146393;19;130002;-40
2022/04/08 22:22:19;;;;;;;3.03;0.80;;;;;;;19.79;43.79;100260.31;16147202;19;129525;-42
2022/04/08 22:27:40;;;;;;;3.15;0.90;;;;;;;19.75;43.58;100282.25;16150211;19;129283;-41
2022/04/08 22:33:02;;;;;;;2.55;0.75;;;;;;;19.68;44.03;100293.59;16150435;19;130226;-41
2022/04/08 22:38:25;;;;;;;3.75;1.00;;;;;;;19.64;44.12;100311.88;16148543;19;129487;-44
2022/04/08 22:43:46;;;;;;;3.03;0.65;;;;;;;19.59;43.65;100322.91;16146865;19;130028;-43
2022/04/08 22:49:08;;;;;;;2.85;0.65;;;;;;;19.53;44.26;100322.06;16150123;19;129597;-45
2022/04/08 22:54:34;;;;;;;2.38;0.73;;;;;;;19.51;44.17;100342.84;16145203;19;129731;-41
2022/04/08 22:59:56;;;;;;;1.33;0.70;;;;;;;19.47;43.87;100355.56;16146079;19;131171;-40
2022/04/08 23:05:18;;;;;;;2.45;0.82;;;;;;;19.44;44.12;100361.69;16147877;19;129045;-41
2022/04/08 23:10:40;;;;;;;3.35;0.80;;;;;;;19.40;44.29;100366.06;16145731;19;129708;-42
2022/04/08 23:16:01;;;;;;;2.00;0.63;;;;;;;19.36;44.39;100374.91;16146591;19;130021;-42
2022/04/08 23:21:23;;;;;;;1.80;0.90;;;;;;;19.33;44.63;100382.94;16141616;19;131500;-40
2022/04/08 23:26:45;;;;;;;2.72;0.80;;;;;;;19.31;44.63;100396.22;16144601;19;130640;-40
2022/04/08 23:32:08;;;;;;;3.10;0.60;;;;;;;19.27;44.71;100401.47;16145244;19;130772;-42
2022/04/08 23:37:30;;;;;;;2.08;0.82;;;;;;;19.23;44.84;100405.84;16144748;19;130453;-41
2022/04/08 23:42:52;;;;;;;1.40;0.70;;;;;;;19.20;44.43;100421.06;16142202;19;130155;-41
2022/04/08 23:48:14;;;;;;;1.70;0.68;;;;;;;19.18;44.49;100433.53;16139485;19;129792;-43
2022/04/08 23:53:36;;;;;;;1.25;0.52;;;;;;;19.16;44.69;100444.03;16144231;19;130352;-44
2022/04/08 23:58:59;;;;;;;1.42;0.60;;;;;;;19.13;44.45;100455.66;16142255;19;130469;-40
